Flight Track Log - Related Links

Times and Time Zones

All times are in EDT time to prevent confusion due to time zone crossing. See the DAL4165 flight status page for this flight to view local times or setup timezone preferences in your user account.

Time Position Orientation Groundspeed Altitude Reporting Facility
EDT Latitude Longitude Course Direction KTS MPH feet Rate Location/Type
Fri 04:30:41 PM 33.6519 -84.3681 252° West 448 516 2,600  Level Atlanta Center
Fri 04:30:57 PM 33.6667 -84.3333 63° Northeast 210 242 2,800 1,895 Climbing Atlanta TRACON
Fri 04:31:57 PM 33.7000 -84.2833 51° Northeast 275 316 5,000 2,500 Climbing Atlanta TRACON
Fri 04:32:57 PM 33.7833 -84.2833 360° North 275 316 7,800 2,268 Climbing Atlanta TRACON
Fri 04:34:41 PM 33.8083 -84.4214 282° West 302 348 11,200 1,720 Climbing Atlanta Center
Fri 04:35:41 PM 33.8100 -84.5489 271° West 327 376 12,500 1,650 Climbing Atlanta Center
Fri 04:36:00 PM 33.7855 -84.6695 252° West  Level FlightAware Approximate
Fri 04:36:41 PM 33.7906 -84.6661 259° West 351 404 14,500  Level Atlanta Center
Fri 04:37:41 PM 33.7858 -84.7811 267° West 356 410 16,200 1,750 Climbing Atlanta Center
Fri 04:38:41 PM 33.7786 -84.9086 266° West 369 425 18,000 1,450 Climbing Atlanta Center
Fri 04:39:41 PM 33.7736 -85.0333 267° West 369 425 19,100 1,300 Climbing Atlanta Center
Fri 04:40:41 PM 33.7683 -85.1583 267° West 369 425 20,600 1,800 Climbing Atlanta Center
Fri 04:41:41 PM 33.7631 -85.2831 267° West 375 432 22,700 1,900 Climbing Atlanta Center
Fri 04:42:41 PM 33.7556 -85.3906 265° West 375 432 24,400 1,500 Climbing Atlanta Center
Fri 04:43:41 PM 33.7500 -85.5103 267° West 369 425 25,700 950 Climbing Atlanta Center
Fri 04:44:41 PM 33.7422 -85.6375 266° West 374 430 26,300 600 Climbing Atlanta Center
Fri 04:45:41 PM 33.7383 -85.7675 268° West 392 451 26,900 550 Climbing Atlanta Center
Fri 04:46:41 PM 33.7281 -85.8997 265° West 398 458 27,400 800 Climbing Atlanta Center
Fri 04:47:41 PM 33.7217 -86.0394 267° West 411 473 28,500 1,150 Climbing Atlanta Center
Fri 04:48:41 PM 33.7131 -86.1764 266° West 416 479 29,700 750 Climbing Atlanta Center
Fri 04:49:41 PM 33.7042 -86.3211 266° West 421 484 30,000 150 Climbing Atlanta Center
Fri 04:50:41 PM 33.6953 -86.4606 266° West 427 491 30,000  Level Atlanta Center
Fri 04:51:41 PM 33.6861 -86.6003 266° West 427 491 30,000  Level Atlanta Center
Fri 04:52:41 PM 33.6769 -86.7372 265° West 422 486 30,000  Level Atlanta Center
Fri 04:53:41 PM 33.6719 -86.8744 268° West 422 486 30,000  Level Atlanta Center
Fri 04:54:41 PM 33.6917 -87.0122 280° West 417 480 30,000 317 Level Atlanta Center
Fri 04:57:09 PM 33.7692 -87.3661 285° West 434 499 31,100 577 Climbing Memphis Center
Fri 04:58:09 PM 33.7975 -87.5025 284° West 428 493 32,000 450 Climbing Memphis Center
Fri 04:59:09 PM 33.8258 -87.6417 284° West 428 493 32,000  Level Memphis Center
Fri 05:00:09 PM 33.8578 -87.7758 286° West 428 493 32,000  Level Memphis Center
Fri 05:01:09 PM 33.8836 -87.9175 282° West 428 493 32,000  Level Memphis Center
Fri 05:02:09 PM 33.9133 -88.0519 285° West 428 493 32,000  Level Memphis Center
Fri 05:03:09 PM 33.9344 -88.1767 282° West 428 493 32,000  Level Memphis Center
Fri 05:04:09 PM 33.9639 -88.3136 285° West 428 493 32,000  Level Memphis Center
Fri 05:05:09 PM 33.9911 -88.4531 283° West 428 493 32,000  Level Memphis Center
Fri 05:06:09 PM 34.0181 -88.5878 284° West 428 493 32,000  Level Memphis Center
Fri 05:07:09 PM 34.0472 -88.7253 284° West 428 493 32,000  Level Memphis Center
Fri 05:08:09 PM 34.0717 -88.8550 283° West 414 476 32,000  Level Memphis Center
Fri 05:09:09 PM 34.0983 -88.9950 283° West 414 476 32,000  Level Memphis Center
Fri 05:10:09 PM 34.1272 -89.1453 283° West 414 476 32,000  Level Memphis Center
Fri 05:11:09 PM 34.1533 -89.2828 283° West 419 482 32,000  Level Memphis Center
Fri 05:12:09 PM 34.1794 -89.4206 283° West 419 482 32,000  Level Memphis Center
Fri 05:13:09 PM 34.2056 -89.5586 283° West 419 482 32,000  Level Memphis Center
Fri 05:14:09 PM 34.2314 -89.6989 283° West 419 482 32,000  Level Memphis Center
Fri 05:15:09 PM 34.2592 -89.8344 284° West 425 489 32,000  Level Memphis Center
Fri 05:16:09 PM 34.2828 -89.9750 282° West 425 489 32,000  Level Memphis Center
Fri 05:17:09 PM 34.3061 -90.0981 283° West 425 489 32,000  Level Memphis Center
Fri 05:18:09 PM 34.3333 -90.2339 284° West 430 495 32,000  Level Memphis Center
Fri 05:19:09 PM 34.3583 -90.3747 282° West 424 488 32,000  Level Memphis Center
Fri 05:20:09 PM 34.3856 -90.5106 284° West 424 488 32,000  Level Memphis Center
Fri 05:21:09 PM 34.4103 -90.6517 282° West 430 495 32,000  Level Memphis Center
Fri 05:22:09 PM 34.4369 -90.7903 283° West 425 489 32,000  Level Memphis Center
Fri 05:23:09 PM 34.4636 -90.9442 282° West 431 496 32,000  Level Memphis Center
Fri 05:24:09 PM 34.4878 -91.0828 282° West 431 496 32,000  Level Memphis Center
Fri 05:25:09 PM 34.5119 -91.2242 282° West 431 496 32,000  Level Memphis Center
Fri 05:26:09 PM 34.5339 -91.3606 281° West 425 489 32,000  Level Memphis Center
Fri 05:27:09 PM 34.5597 -91.4994 283° West 430 495 32,000  Level Memphis Center
Fri 05:28:09 PM 34.5836 -91.6386 282° West 430 495 32,000  Level Memphis Center
Fri 05:29:09 PM 34.6092 -91.7753 283° West 430 495 32,000  Level Memphis Center
Fri 05:30:09 PM 34.6325 -91.9119 282° West 420 483 32,000  Level Memphis Center
Fri 05:31:09 PM 34.6578 -92.0514 282° West 420 483 32,000  Level Memphis Center
Fri 05:32:09 PM 34.6789 -92.1906 280° West 420 483 32,000  Level Memphis Center
Fri 05:33:09 PM 34.6975 -92.3325 279° West 425 489 32,000  Level Memphis Center
Fri 05:34:09 PM 34.7183 -92.4694 281° West 425 489 32,000  Level Memphis Center
Fri 05:35:09 PM 34.7389 -92.6089 280° West 425 489 32,000  Level Memphis Center
Fri 05:36:09 PM 34.7572 -92.7483 279° West 425 489 32,000  Level Memphis Center
Fri 05:37:09 PM 34.7772 -92.8881 280° West 425 489 32,000  Level Memphis Center
Fri 05:38:09 PM 34.7975 -93.0253 280° West 425 489 32,000  Level Memphis Center
Fri 05:39:09 PM 34.8153 -93.1675 279° West 425 489 32,000  Level Memphis Center
Fri 05:40:09 PM 34.8350 -93.3047 280° West 425 489 32,000  Level Memphis Center
Fri 05:41:09 PM 34.8544 -93.4469 279° West 432 497 32,000  Level Memphis Center
Fri 05:42:09 PM 34.8722 -93.5717 280° West 432 497 32,000  Level Memphis Center
Fri 05:43:09 PM 34.8894 -93.7117 279° West 427 491 32,000  Level Memphis Center
Fri 05:44:09 PM 34.9086 -93.8492 280° West 427 491 32,000  Level Memphis Center
Fri 05:45:09 PM 34.9272 -93.9917 279° West 427 491 32,000  Level Memphis Center
Fri 05:46:09 PM 34.9461 -94.1319 279° West 427 491 32,000  Level Memphis Center
Fri 05:48:07 PM 34.9781 -94.4058 278° West 446 513 32,000  Level Fort Worth Center
Fri 05:49:07 PM 34.9961 -94.5469 279° West 434 499 32,000  Level Fort Worth Center
Fri 05:50:07 PM 35.0136 -94.6858 279° West 428 493 32,000  Level Fort Worth Center
Fri 05:51:07 PM 35.0333 -94.8222 280° West 423 487 32,000  Level Fort Worth Center
Fri 05:52:07 PM 35.0528 -94.9661 279° West 423 487 32,000  Level Fort Worth Center
Fri 05:53:07 PM 35.0722 -95.1050 280° West 423 487 32,000  Level Fort Worth Center
Fri 05:54:07 PM 35.0892 -95.2442 279° West 423 487 32,000 -400 Level Fort Worth Center
Fri 05:55:07 PM 35.1083 -95.3833 280° West 423 487 31,200 -900 Descending Fort Worth Center
Fri 05:56:07 PM 35.1272 -95.5325 279° West 423 487 30,200 -1,000 Descending Fort Worth Center
Fri 05:57:07 PM 35.1439 -95.6719 278° West 423 487 29,200 -1,000 Descending Fort Worth Center
Fri 05:58:07 PM 35.1625 -95.8111 279° West 423 487 28,200 -1,050 Descending Fort Worth Center
Fri 05:59:07 PM 35.1767 -95.9431 278° West 416 479 27,100 -1,050 Descending Fort Worth Center
Fri 06:00:07 PM 35.1906 -96.0800 277° West 410 472 26,100 -1,500 Descending Fort Worth Center
Fri 06:01:07 PM 35.2067 -96.2117 279° West 404 465 24,100 -2,050 Descending Fort Worth Center
Fri 06:02:07 PM 35.2203 -96.3436 277° West 404 465 22,000 -2,250 Descending Fort Worth Center
Fri 06:03:07 PM 35.2358 -96.4706 279° West 398 458 19,600 -2,341 Descending Fort Worth Center
Fri 06:03:29 PM 35.2403 -96.5164 277° West 379 436 18,800 -2,300 Descending Fort Worth Center
Fri 06:04:07 PM 35.2492 -96.5925 278° West 385 443 17,300 -2,364 Descending Fort Worth Center
Fri 06:04:35 PM 35.2558 -96.6558 277° West 358 412 16,200 -2,400 Descending Fort Worth Center
Fri 06:05:07 PM 35.2625 -96.7144 278° West 375 432 14,900 -2,459 Descending Fort Worth Center
Fri 06:05:36 PM 35.2692 -96.7778 277° West 366 421 13,700 -2,400 Descending Fort Worth Center
Fri 06:06:07 PM 35.2736 -96.8364 275° West 368 423 12,500 -2,164 Descending Fort Worth Center
Fri 06:06:37 PM 35.2800 -96.8972 277° West 351 404 11,500 -1,500 Descending Fort Worth Center
Fri 06:07:07 PM 35.2886 -96.9481 282° West 356 410 11,000 -1,000 Descending Fort Worth Center
Fri 06:07:37 PM 35.2931 -97.0017 276° West 296 341 10,500 -1,100 Descending Fort Worth Center
Fri 06:08:07 PM 35.3139 -97.0369 306° West 297 342 9,900 -1,475 Descending Fort Worth Center
Fri 06:08:38 PM 35.3392 -97.0750 309° West 276 318 9,000 -1,600 Descending Fort Worth Center
Fri 06:09:07 PM 35.3661 -97.1056 317° Northwest 281 323 8,300 -1,600 Descending Fort Worth Center
Fri 06:09:38 PM 35.3914 -97.1436 309° West 273 314 7,400 -1,600 Descending Fort Worth Center
Fri 06:10:07 PM 35.4164 -97.1742 315° West 276 318 6,700 -1,418 Descending Fort Worth Center
Fri 06:10:33 PM 35.4372 -97.2072 308° West 267 307 6,100 -1,400 Descending Fort Worth Center
Fri 06:11:07 PM 35.4667 -97.2403 318° Northwest 271 312 5,300 -1,701 Descending Fort Worth Center
Fri 06:11:40 PM 35.4917 -97.2836 305° West 256 295 4,200 -1,300 Descending Fort Worth Center
Fri 06:12:07 PM 35.5147 -97.3089 318° Northwest 271 312 4,000 -200 Descending Fort Worth Center
Fri 06:12:40 PM 35.5375 -97.3497 304° West 257 296 4,000  Level Fort Worth Center
Fri 06:13:07 PM 35.5522 -97.3803 301° West 263 303 4,000  Level Fort Worth Center
Fri 06:13:47 PM 35.5564 -97.4367 275° West 246 283 4,000  Level Fort Worth Center
Fri 06:14:07 PM 35.5647 -97.4672 289° West 244 281 4,000  Level Fort Worth Center
Fri 06:14:48 PM 35.5667 -97.5283 272° West 259 298 4,000  Level Fort Worth Center
Fri 06:15:07 PM 35.5731 -97.5436 297° West 250 288 4,000 98 Level Fort Worth Center
Fri 06:15:49 PM 35.5644 -97.5947 258° West 196 226 4,100  Climbing Fort Worth Center
Fri 06:16:07 PM 35.5542 -97.5972 191° South 204 235 4,000 -333 Descending Fort Worth Center

Login

Don't have an account? Register now (free) for customized features, flight alerts, and more!